createdAt,value
2019-02-28T00:00:47.063Z,81.47
2019-02-28T00:03:15.709Z,81.13
2019-02-28T00:05:44.227Z,81.17
2019-02-28T00:08:12.759Z,82.97
2019-02-28T00:10:41.282Z,84.10
2019-02-28T00:13:09.736Z,82.97
2019-02-28T00:15:38.189Z,81.73
2019-02-28T00:18:06.755Z,85.50
2019-02-28T00:20:36.630Z,88.90
2019-02-28T00:23:05.284Z,84.53
2019-02-28T00:25:37.773Z,83.20
2019-02-28T00:28:04.030Z,86.73
2019-02-28T00:30:32.487Z,86.87
2019-02-28T00:33:00.984Z,93.00
2019-02-28T00:35:29.599Z,89.50
2019-02-28T00:37:58.061Z,89.43
2019-02-28T00:40:26.627Z,89.47
2019-02-28T00:42:55.715Z,91.83
2019-02-28T00:45:24.244Z,96.73
2019-02-28T00:47:52.756Z,93.90
2019-02-28T00:50:21.217Z,98.40
2019-02-28T00:52:49.679Z,94.87
2019-02-28T00:55:18.241Z,97.57
2019-02-28T00:57:46.719Z,101.60
2019-02-28T01:00:20.208Z,94.97
2019-02-28T01:02:52.105Z,102.73
2019-02-28T01:05:19.075Z,96.10
2019-02-28T01:07:48.943Z,95.83
2019-02-28T01:10:18.018Z,95.60
2019-02-28T01:12:46.472Z,97.60
2019-02-28T01:15:16.192Z,92.97
2019-02-28T01:17:44.840Z,95.70
2019-02-28T01:20:16.334Z,105.77
2019-02-28T01:22:44.132Z,95.90
2019-02-28T01:25:14.654Z,94.43
2019-02-28T01:27:43.156Z,101.30
2019-02-28T01:30:33.471Z,106.00
2019-02-28T01:33:01.929Z,99.10
2019-02-28T01:35:30.463Z,117.80
2019-02-28T01:37:58.963Z,109.57
2019-02-28T01:40:27.425Z,105.87
2019-02-28T01:42:56.020Z,122.93
2019-02-28T01:45:24.614Z,124.73
2019-02-28T01:47:53.064Z,115.73
2019-02-28T01:50:21.595Z,118.60
2019-02-28T01:52:50.178Z,119.57
2019-02-28T01:55:18.692Z,121.73
2019-02-28T01:57:47.263Z,117.70
2019-02-28T02:00:17.715Z,118.47
2019-02-28T02:02:46.258Z,125.00
2019-02-28T02:05:17.000Z,126.80
2019-02-28T02:07:45.319Z,130.07
2019-02-28T02:10:21.269Z,135.00
2019-02-28T02:12:48.451Z,131.63
2019-02-28T02:15:17.918Z,132.17
2019-02-28T02:17:46.643Z,141.07
2019-02-28T02:20:16.073Z,147.20
2019-02-28T02:22:45.406Z,134.67
2019-02-28T02:25:14.251Z,132.60
2019-02-28T02:27:42.954Z,129.37
2019-02-28T02:30:23.053Z,135.43
2019-02-28T02:32:51.647Z,135.83
2019-02-28T02:35:20.267Z,132.20
2019-02-28T02:37:48.827Z,129.53
2019-02-28T02:40:17.468Z,129.37
2019-02-28T02:42:48.652Z,133.00
2019-02-28T02:45:16.364Z,134.73
2019-02-28T02:47:44.936Z,138.70
2019-02-28T02:50:14.613Z,142.13
2019-02-28T02:52:43.698Z,144.37
2019-02-28T02:55:13.123Z,147.87
2019-02-28T02:57:41.747Z,154.17
2019-02-28T03:00:15.725Z,161.43
2019-02-28T03:02:44.507Z,160.40
2019-02-28T03:05:13.184Z,155.17
2019-02-28T03:07:41.869Z,158.23
2019-02-28T03:10:17.362Z,138.60
2019-02-28T03:12:43.323Z,148.27
2019-02-28T03:15:14.171Z,145.73
2019-02-28T03:17:46.473Z,149.97
2019-02-28T03:20:14.086Z,145.60
2019-02-28T03:22:42.942Z,158.70
2019-02-28T03:25:16.113Z,153.00
2019-02-28T03:27:44.639Z,163.93
2019-02-28T03:30:28.489Z,141.43
2019-02-28T03:32:48.557Z,147.03
2019-02-28T03:35:17.217Z,149.17
2019-02-28T03:37:45.793Z,153.67
2019-02-28T03:40:15.106Z,146.60
2019-02-28T03:42:43.633Z,148.63
2019-02-28T03:45:15.935Z,156.43
2019-02-28T03:47:44.471Z,149.63
2019-02-28T03:50:13.422Z,157.30
2019-02-28T03:52:44.118Z,161.33
2019-02-28T03:55:13.608Z,160.67
2019-02-28T03:57:42.273Z,159.30
2019-02-28T04:00:22.189Z,161.63
2019-02-28T04:02:56.666Z,151.07
2019-02-28T04:05:26.466Z,154.70
2019-02-28T04:07:53.530Z,160.50
2019-02-28T04:10:22.542Z,170.20
2019-02-28T04:12:51.390Z,158.03
2019-02-28T04:15:21.123Z,172.13
2019-02-28T04:17:49.691Z,168.27
2019-02-28T04:20:18.221Z,170.10
2019-02-28T04:22:47.297Z,180.33
2019-02-28T04:25:22.920Z,167.30
2019-02-28T04:27:45.979Z,168.57
2019-02-28T04:30:15.848Z,152.47
2019-02-28T04:32:44.378Z,151.50
2019-02-28T04:35:12.985Z,159.07
2019-02-28T04:37:46.545Z,169.33
2019-02-28T04:40:12.974Z,156.80
2019-02-28T04:42:41.760Z,171.27
2019-02-28T04:45:15.085Z,167.00
2019-02-28T04:47:43.548Z,163.50
2019-02-28T04:50:12.750Z,153.87
2019-02-28T04:52:46.670Z,167.37
2019-02-28T04:55:12.313Z,157.17
2019-02-28T04:57:40.780Z,161.60
2019-02-28T05:00:17.177Z,154.40
2019-02-28T05:02:45.633Z,168.43
2019-02-28T05:05:14.337Z,172.10
2019-02-28T05:07:42.928Z,156.30
2019-02-28T05:10:12.175Z,163.27
2019-02-28T05:12:41.237Z,150.93
2019-02-28T05:15:14.447Z,155.53
2019-02-28T05:17:43.035Z,159.17
2019-02-28T05:20:12.294Z,162.87
2019-02-28T05:22:41.341Z,157.77
2019-02-28T05:25:11.120Z,160.40
2019-02-28T05:27:39.762Z,154.53
2019-02-28T05:30:11.407Z,142.60
2019-02-28T05:32:40.031Z,138.93
2019-02-28T05:35:08.662Z,143.27
2019-02-28T05:37:37.164Z,141.57
2019-02-28T05:40:11.942Z,125.93
2019-02-28T05:42:40.476Z,124.27
2019-02-28T05:45:11.328Z,128.07
2019-02-28T05:47:46.408Z,125.23
2019-02-28T05:50:15.471Z,120.60
2019-02-28T05:52:42.098Z,120.67
2019-02-28T05:55:11.007Z,111.37
2019-02-28T05:57:43.433Z,105.30
2019-02-28T06:00:16.108Z,117.43
2019-02-28T06:02:44.576Z,114.30
2019-02-28T06:05:13.106Z,110.47
2019-02-28T06:07:41.668Z,112.87
2019-02-28T06:10:14.062Z,113.80
2019-02-28T06:12:43.845Z,114.30
2019-02-28T06:15:17.363Z,112.10
2019-02-28T06:17:45.923Z,103.40
2019-02-28T06:20:16.946Z,102.43
2019-02-28T06:22:45.088Z,105.97
2019-02-28T06:25:22.503Z,109.87
2019-02-28T06:27:49.121Z,93.90
2019-02-28T06:30:34.285Z,93.17
2019-02-28T06:33:02.747Z,100.53
2019-02-28T06:35:31.197Z,100.93
2019-02-28T06:37:59.696Z,97.20
2019-02-28T06:40:32.642Z,95.83
2019-02-28T06:42:58.332Z,100.03
2019-02-28T06:45:26.944Z,85.63
2019-02-28T06:47:55.402Z,85.77
2019-02-28T06:50:24.365Z,91.87
2019-02-28T06:52:52.888Z,74.53
2019-02-28T06:55:25.798Z,95.17
2019-02-28T06:57:54.401Z,78.53
2019-02-28T07:00:22.971Z,88.07
2019-02-28T07:02:51.421Z,88.53
2019-02-28T07:05:24.487Z,72.17
2019-02-28T07:07:50.311Z,74.17
2019-02-28T07:10:19.067Z,80.97
2019-02-28T07:12:47.599Z,70.60
2019-02-28T07:15:16.190Z,72.50
2019-02-28T07:17:46.280Z,71.47
2019-02-28T07:20:16.466Z,62.87
2019-02-28T07:22:45.025Z,65.20
2019-02-28T07:25:13.889Z,70.20
2019-02-28T07:27:42.753Z,66.37
2019-02-28T07:30:19.219Z,67.37
2019-02-28T07:32:48.195Z,60.17
2019-02-28T07:35:16.789Z,67.67
2019-02-28T07:37:45.478Z,59.00
2019-02-28T07:40:16.110Z,52.53
2019-02-28T07:42:45.613Z,59.23
2019-02-28T07:45:15.360Z,56.80
2019-02-28T07:47:44.031Z,60.27
2019-02-28T07:50:16.168Z,62.73
2019-02-28T07:52:44.827Z,55.57
2019-02-28T07:55:15.294Z,49.53
2019-02-28T07:57:43.886Z,54.13
2019-02-28T08:00:21.136Z,59.70
2019-02-28T08:02:49.736Z,59.97
2019-02-28T08:05:18.517Z,53.07
2019-02-28T08:07:52.020Z,55.97
2019-02-28T08:10:22.830Z,48.77
2019-02-28T08:12:51.408Z,47.30
2019-02-28T08:15:23.899Z,54.60
2019-02-28T08:17:52.595Z,53.13
2019-02-28T08:20:21.481Z,53.27
2019-02-28T08:22:50.181Z,51.43
2019-02-28T08:25:18.715Z,49.67
2019-02-28T08:27:47.214Z,46.70
2019-02-28T08:30:27.313Z,47.27
2019-02-28T08:32:55.802Z,43.93
2019-02-28T08:35:24.248Z,47.67
2019-02-28T08:37:57.019Z,43.03
2019-02-28T08:40:26.778Z,47.07
2019-02-28T08:42:55.031Z,45.43
2019-02-28T08:45:23.606Z,38.33
2019-02-28T08:47:55.252Z,42.20
2019-02-28T08:50:24.023Z,41.77
2019-02-28T08:52:57.877Z,37.73
2019-02-28T08:55:29.103Z,35.43
2019-02-28T08:58:03.941Z,39.27
2019-02-28T09:00:31.049Z,37.23
2019-02-28T09:02:57.248Z,40.33
2019-02-28T09:05:27.747Z,33.63
2019-02-28T09:07:56.007Z,35.47
2019-02-28T09:10:25.687Z,36.37
2019-02-28T09:12:54.293Z,30.33
2019-02-28T09:15:23.184Z,29.73
2019-02-28T09:17:51.715Z,33.47
2019-02-28T09:20:20.324Z,26.63
2019-02-28T09:22:48.904Z,29.90
2019-02-28T09:25:22.135Z,27.87
2019-02-28T09:27:49.448Z,33.43
2019-02-28T09:30:26.538Z,25.33
2019-02-28T09:32:54.198Z,24.20
2019-02-28T09:35:22.737Z,23.97
2019-02-28T09:37:51.349Z,25.50
2019-02-28T09:40:19.821Z,23.00
2019-02-28T09:42:51.186Z,18.40
2019-02-28T09:45:22.787Z,22.60
2019-02-28T09:47:51.313Z,18.93
2019-02-28T09:50:22.441Z,15.77
2019-02-28T09:52:51.592Z,16.80
2019-02-28T09:55:20.124Z,20.47
2019-02-28T09:57:53.719Z,16.30
2019-02-28T10:00:23.965Z,15.57
2019-02-28T10:02:53.071Z,14.93
2019-02-28T10:05:21.819Z,17.47
2019-02-28T10:07:50.545Z,12.37
2019-02-28T10:10:22.216Z,13.30
2019-02-28T10:12:50.821Z,13.93
2019-02-28T10:15:23.172Z,13.03
2019-02-28T10:17:51.887Z,11.10
2019-02-28T10:20:26.544Z,10.30
2019-02-28T10:22:52.927Z,12.00
2019-02-28T10:25:21.556Z,13.37
2019-02-28T10:27:50.124Z,13.00
2019-02-28T10:30:31.117Z,10.43
2019-02-28T10:32:53.530Z,5.83
2019-02-28T10:35:22.258Z,8.33
2019-02-28T10:37:50.756Z,10.30
2019-02-28T10:40:26.885Z,8.30
2019-02-28T10:42:55.708Z,9.97
2019-02-28T10:45:24.981Z,6.97
2019-02-28T10:47:53.598Z,7.33
2019-02-28T10:50:33.655Z,10.40
2019-02-28T10:53:05.593Z,6.60
2019-02-28T10:55:33.408Z,9.03
2019-02-28T10:58:02.069Z,7.53
2019-02-28T11:00:40.146Z,5.27
2019-02-28T11:03:31.737Z,7.63
2019-02-28T11:05:58.441Z,8.07
2019-02-28T11:08:26.965Z,5.43
2019-02-28T11:10:55.622Z,5.30
2019-02-28T11:13:24.221Z,6.57
2019-02-28T11:15:54.495Z,7.03
2019-02-28T11:18:23.058Z,5.87
2019-02-28T11:20:51.661Z,6.20
2019-02-28T11:23:21.922Z,6.17
2019-02-28T11:25:50.416Z,5.57
2019-02-28T11:28:19.474Z,6.07
2019-02-28T11:30:48.938Z,7.40
2019-02-28T11:33:18.880Z,5.93
2019-02-28T11:35:47.739Z,8.73
2019-02-28T11:38:20.501Z,6.37
2019-02-28T11:40:46.709Z,8.07
2019-02-28T11:43:15.246Z,6.20
2019-02-28T11:45:47.870Z,6.57
2019-02-28T11:48:20.401Z,6.20
2019-02-28T11:50:49.076Z,7.90
2019-02-28T11:53:19.068Z,7.30
2019-02-28T11:55:48.046Z,8.07
2019-02-28T11:58:17.849Z,11.17
2019-02-28T12:00:46.837Z,4.97
2019-02-28T12:03:15.337Z,4.50
2019-02-28T12:05:43.868Z,8.93
2019-02-28T12:08:12.484Z,4.50
2019-02-28T12:10:41.044Z,6.20
2019-02-28T12:13:09.769Z,4.23
2019-02-28T12:15:40.339Z,6.40
2019-02-28T12:18:08.995Z,4.20
2019-02-28T12:20:37.594Z,4.20
2019-02-28T12:23:06.304Z,4.70
2019-02-28T12:25:35.016Z,3.80
2019-02-28T12:28:06.350Z,4.60
2019-02-28T12:30:35.035Z,3.07
2019-02-28T12:33:03.622Z,4.47
2019-02-28T12:35:37.270Z,3.47
2019-02-28T12:38:02.903Z,5.67
2019-02-28T12:40:37.045Z,3.37
2019-02-28T12:43:08.745Z,3.37
2019-02-28T12:45:40.359Z,4.57
2019-02-28T12:48:08.855Z,4.00
2019-02-28T12:50:37.379Z,6.07
2019-02-28T12:53:05.993Z,4.40
2019-02-28T12:55:35.394Z,4.23
2019-02-28T12:58:04.820Z,3.57
2019-02-28T13:00:38.480Z,2.77
2019-02-28T13:03:09.082Z,2.20
2019-02-28T13:05:37.425Z,2.50
2019-02-28T13:08:07.055Z,9.53
2019-02-28T13:10:36.266Z,4.47
2019-02-28T13:13:06.939Z,4.63
2019-02-28T13:15:35.633Z,2.30
2019-02-28T13:18:08.842Z,4.00
2019-02-28T13:20:37.091Z,2.87
2019-02-28T13:23:05.962Z,1.93
2019-02-28T13:25:34.639Z,2.10
2019-02-28T13:28:03.200Z,3.40
2019-02-28T13:30:31.718Z,2.20
2019-02-28T13:33:00.222Z,1.40
2019-02-28T13:35:34.195Z,1.30
2019-02-28T13:38:02.785Z,2.13
2019-02-28T13:40:31.351Z,2.37
2019-02-28T13:43:01.761Z,2.57
2019-02-28T13:45:30.063Z,3.40
2019-02-28T13:47:58.647Z,1.83
2019-02-28T13:50:28.615Z,2.63
2019-02-28T13:53:02.364Z,2.90
2019-02-28T13:55:27.367Z,1.33
2019-02-28T13:57:55.969Z,5.10
2019-02-28T14:00:28.152Z,4.67
2019-02-28T14:02:58.764Z,1.87
2019-02-28T14:05:27.465Z,2.13
2019-02-28T14:07:55.925Z,4.10
2019-02-28T14:10:24.777Z,1.27
2019-02-28T14:12:57.107Z,1.20
2019-02-28T14:15:48.038Z,2.87
2019-02-28T14:18:15.178Z,1.13
2019-02-28T14:20:44.712Z,1.17
2019-02-28T14:23:13.474Z,1.10
2019-02-28T14:25:42.227Z,2.13
2019-02-28T14:28:10.749Z,1.00
2019-02-28T14:30:39.424Z,2.43
2019-02-28T14:33:08.605Z,0.83
2019-02-28T14:35:38.625Z,0.67
2019-02-28T14:38:07.488Z,0.80
2019-02-28T14:40:36.192Z,1.70
2019-02-28T14:43:06.768Z,0.70
2019-02-28T14:45:42.989Z,1.00
2019-02-28T14:48:11.468Z,0.80
2019-02-28T14:50:40.001Z,0.80
2019-02-28T14:53:13.086Z,1.27
2019-02-28T14:55:38.946Z,3.60
2019-02-28T14:58:07.472Z,2.20
2019-02-28T15:00:39.072Z,1.43
2019-02-28T15:03:06.770Z,0.97
2019-02-28T15:05:38.642Z,1.40
2019-02-28T15:08:07.129Z,1.10
2019-02-28T15:10:35.733Z,1.53
2019-02-28T15:13:05.084Z,0.87
2019-02-28T15:15:36.196Z,1.00
2019-02-28T15:18:04.813Z,0.70
2019-02-28T15:20:33.423Z,0.83
2019-02-28T15:23:02.007Z,1.70
2019-02-28T15:25:31.074Z,1.27
2019-02-28T15:27:59.683Z,1.60
2019-02-28T15:30:36.841Z,0.80
2019-02-28T15:33:05.363Z,0.93
2019-02-28T15:35:33.874Z,1.60
2019-02-28T15:38:05.794Z,3.53
2019-02-28T15:40:40.806Z,1.10
2019-02-28T15:43:09.419Z,1.80
2019-02-28T15:45:37.941Z,0.97
2019-02-28T15:48:06.466Z,2.50
2019-02-28T15:50:35.167Z,2.27
2019-02-28T15:53:03.861Z,3.57
2019-02-28T15:55:35.117Z,1.80
2019-02-28T15:58:05.390Z,1.07
2019-02-28T16:00:35.091Z,6.80
2019-02-28T16:03:03.689Z,1.53
2019-02-28T16:05:32.334Z,1.80
2019-02-28T16:08:00.851Z,1.20
2019-02-28T16:10:33.312Z,1.70
2019-02-28T16:13:02.106Z,2.23
2019-02-28T16:15:30.635Z,2.40
2019-02-28T16:17:59.324Z,1.13
2019-02-28T16:20:28.628Z,2.00
2019-02-28T16:22:58.384Z,3.13
2019-02-28T16:25:37.695Z,3.27
2019-02-28T16:28:08.926Z,2.77
2019-02-28T16:30:38.888Z,1.17
2019-02-28T16:33:07.727Z,1.97
2019-02-28T16:35:36.251Z,1.47
2019-02-28T16:38:06.543Z,3.33
2019-02-28T16:40:35.362Z,4.93
2019-02-28T16:43:04.017Z,3.60
2019-02-28T16:45:43.333Z,6.47
2019-02-28T16:48:11.818Z,6.90
2019-02-28T16:50:40.263Z,5.73
2019-02-28T16:53:14.811Z,5.93
2019-02-28T16:55:39.242Z,2.00
2019-02-28T16:58:07.694Z,2.20
2019-02-28T17:00:36.368Z,2.57
2019-02-28T17:03:07.295Z,1.50
2019-02-28T17:05:36.791Z,2.33
2019-02-28T17:08:06.763Z,3.03
2019-02-28T17:10:40.039Z,4.43
2019-02-28T17:13:17.873Z,1.60
2019-02-28T17:16:01.395Z,1.47
2019-02-28T17:18:29.016Z,3.97
2019-02-28T17:20:57.469Z,3.43
2019-02-28T17:23:25.915Z,2.23
2019-02-28T17:25:56.516Z,2.97
2019-02-28T17:28:46.632Z,4.93
2019-02-28T17:34:12.808Z,5.20
2019-02-28T17:36:44.116Z,3.30
2019-02-28T17:39:14.785Z,2.13
2019-02-28T17:41:41.663Z,2.50
2019-02-28T17:44:28.252Z,3.10
2019-02-28T17:47:02.706Z,3.80
2019-02-28T17:49:59.974Z,3.90
2019-02-28T17:52:38.892Z,3.67
2019-02-28T17:55:16.358Z,2.63
2019-02-28T17:58:05.712Z,3.60
2019-02-28T18:01:01.469Z,7.27
2019-02-28T18:03:44.979Z,5.63
2019-02-28T18:06:15.266Z,4.37
2019-02-28T18:09:01.802Z,7.67
2019-02-28T18:11:57.048Z,7.27
2019-02-28T18:15:08.839Z,8.03
2019-02-28T18:17:41.937Z,3.33
2019-02-28T18:20:32.178Z,7.07
2019-02-28T18:23:05.989Z,7.40
2019-02-28T18:25:40.276Z,9.20
2019-02-28T18:28:18.845Z,6.77
2019-02-28T18:31:06.171Z,7.07
2019-02-28T18:33:34.863Z,5.33
2019-02-28T18:36:05.154Z,6.93
2019-02-28T18:38:35.742Z,6.60
2019-02-28T18:41:06.452Z,9.30
2019-02-28T18:43:35.226Z,11.00
2019-02-28T18:46:04.457Z,7.23
2019-02-28T18:48:33.090Z,8.40
2019-02-28T18:51:01.668Z,3.67
2019-02-28T18:53:30.175Z,1.60
2019-02-28T18:55:58.625Z,2.50
2019-02-28T18:58:27.083Z,2.97
2019-02-28T19:00:55.648Z,1.93
2019-02-28T19:03:24.188Z,2.83
2019-02-28T19:05:52.708Z,5.13
2019-02-28T19:08:21.236Z,6.03
2019-02-28T19:10:49.912Z,4.67
2019-02-28T19:13:18.413Z,2.17
2019-02-28T19:15:46.990Z,3.47
2019-02-28T19:18:15.452Z,3.17
2019-02-28T19:20:43.980Z,7.70
2019-02-28T19:23:12.511Z,4.40
2019-02-28T19:25:41.111Z,2.90
2019-02-28T19:28:09.580Z,3.97
2019-02-28T19:30:38.080Z,6.73
2019-02-28T19:33:06.548Z,3.53
2019-02-28T19:35:35.085Z,1.50
2019-02-28T19:38:03.748Z,1.77
2019-02-28T19:40:32.223Z,1.67
2019-02-28T19:43:00.728Z,3.27
2019-02-28T19:45:35.169Z,4.03
2019-02-28T19:48:04.852Z,3.07
2019-02-28T19:50:33.364Z,3.83
2019-02-28T19:53:01.831Z,4.43
2019-02-28T19:55:30.399Z,2.40
2019-02-28T19:57:58.864Z,2.33
2019-02-28T20:00:27.523Z,2.50
2019-02-28T20:02:56.088Z,2.63
2019-02-28T20:05:24.976Z,3.00
2019-02-28T20:07:53.473Z,5.27
2019-02-28T20:10:22.326Z,3.57
2019-02-28T20:12:50.840Z,3.63
2019-02-28T20:15:22.378Z,3.00
2019-02-28T20:17:51.117Z,2.67
2019-02-28T20:20:25.788Z,2.60
2019-02-28T20:22:54.362Z,3.93
2019-02-28T20:25:22.976Z,3.37
2019-02-28T20:27:51.583Z,4.33
2019-02-28T20:30:22.111Z,6.43
2019-02-28T20:32:50.575Z,6.20
2019-02-28T20:35:26.097Z,5.13
2019-02-28T20:37:49.822Z,5.00
2019-02-28T20:40:33.032Z,4.30
2019-02-28T20:43:01.624Z,4.90
2019-02-28T20:45:30.220Z,2.87
2019-02-28T20:47:58.739Z,2.87
2019-02-28T20:50:36.151Z,4.23
2019-02-28T20:53:05.468Z,5.17
2019-02-28T20:55:34.121Z,3.80
2019-02-28T20:58:02.878Z,5.00
2019-02-28T21:00:31.485Z,4.03
2019-02-28T21:03:00.022Z,5.30
2019-02-28T21:05:28.599Z,5.47
2019-02-28T21:07:57.071Z,2.30
2019-02-28T21:10:25.683Z,4.63
2019-02-28T21:12:54.243Z,5.10
2019-02-28T21:15:24.668Z,7.97
2019-02-28T21:17:53.182Z,7.00
2019-02-28T21:20:21.854Z,4.37
2019-02-28T21:22:50.763Z,4.13
2019-02-28T21:25:19.545Z,3.03
2019-02-28T21:27:48.061Z,4.40
2019-02-28T21:30:19.024Z,8.83
2019-02-28T21:32:47.662Z,5.50
2019-02-28T21:35:17.231Z,3.63
2019-02-28T21:37:47.144Z,5.97
2019-02-28T21:40:20.647Z,5.63
2019-02-28T21:42:49.233Z,6.03
2019-02-28T21:45:28.065Z,10.57
2019-02-28T21:47:56.750Z,6.27
2019-02-28T21:50:25.362Z,6.87
2019-02-28T21:52:54.041Z,5.73
2019-02-28T21:55:22.708Z,7.53
2019-02-28T21:57:51.247Z,6.13
2019-02-28T22:00:25.148Z,6.77
2019-02-28T22:02:53.737Z,8.03
2019-02-28T22:05:22.330Z,5.17
2019-02-28T22:07:50.777Z,5.87
2019-02-28T22:10:19.526Z,7.47
2019-02-28T22:12:48.053Z,8.40
2019-02-28T22:15:23.633Z,10.13
2019-02-28T22:17:52.264Z,11.07
2019-02-28T22:20:20.790Z,5.17
2019-02-28T22:22:49.335Z,4.33
2019-02-28T22:25:18.187Z,6.20
2019-02-28T22:27:46.768Z,8.37
2019-02-28T22:30:38.741Z,7.17
2019-02-28T22:33:11.916Z,6.13
2019-02-28T22:35:42.160Z,6.83
2019-02-28T22:38:10.697Z,7.67
2019-02-28T22:40:39.173Z,7.80
2019-02-28T22:43:07.669Z,5.40
2019-02-28T22:45:36.193Z,7.80
2019-02-28T22:48:04.737Z,10.77
2019-02-28T22:50:33.354Z,6.10
2019-02-28T22:53:01.873Z,6.57
2019-02-28T22:55:30.517Z,12.17
2019-02-28T22:57:59.108Z,11.90
2019-02-28T23:00:57.864Z,8.23
2019-02-28T23:03:26.910Z,8.43
2019-02-28T23:05:55.434Z,9.63
2019-02-28T23:08:23.890Z,6.23
2019-02-28T23:10:52.640Z,9.30
2019-02-28T23:13:40.447Z,7.33
2019-02-28T23:16:09.103Z,7.53
2019-02-28T23:18:37.633Z,5.37
2019-02-28T23:21:06.080Z,6.10
2019-02-28T23:23:34.611Z,11.53
2019-02-28T23:26:08.521Z,8.67
2019-02-28T23:28:40.115Z,7.93
2019-02-28T23:31:23.438Z,9.13
2019-02-28T23:34:01.104Z,6.67
2019-02-28T23:36:22.786Z,6.40
2019-02-28T23:38:51.295Z,6.43
2019-02-28T23:41:19.869Z,8.03
2019-02-28T23:43:48.390Z,10.93
2019-02-28T23:46:16.852Z,11.50
2019-02-28T23:48:45.349Z,7.60
2019-02-28T23:51:13.809Z,9.87
2019-02-28T23:53:42.344Z,10.67
2019-02-28T23:56:10.857Z,8.60
2019-02-28T23:58:39.449Z,9.13
